Time;durP1;ratioP1;P1;durP2;ratioP2;P2;SDS_P1;SDS_P2;PMS_P1;PMS_P2;Temp;Humidity;BMP_temperature;BMP_pressure;BME280_temperature;BME280_humidity;BME280_pressure;Samples;Min_cycle;Max_cycle;Signal;HPM_P1;HPM_P2
2022/10/08 00:01:19;;;;;;;2.15;1.27;;;17.20;67.70;;;;;;5073099;28;20080;-73
2022/10/08 00:03:47;;;;;;;2.08;1.00;;;17.20;67.20;;;;;;5073249;28;20489;-73
2022/10/08 00:06:15;;;;;;;2.92;0.95;;;17.20;67.20;;;;;;5072982;28;20059;-73
2022/10/08 00:08:42;;;;;;;1.90;1.10;;;17.20;67.20;;;;;;5074249;28;20048;-73
2022/10/08 00:11:10;;;;;;;3.28;1.80;;;17.20;67.30;;;;;;5072507;28;20094;-72
2022/10/08 00:13:41;;;;;;;1.88;1.20;;;17.20;67.30;;;;;;5073313;28;20064;-73
2022/10/08 00:16:08;;;;;;;1.90;1.02;;;17.10;67.30;;;;;;5073032;28;20516;-73
2022/10/08 00:18:36;;;;;;;0.90;0.82;;;17.20;67.30;;;;;;5072056;28;20134;-73
2022/10/08 00:21:08;;;;;;;1.83;1.10;;;17.20;67.30;;;;;;5074195;28;20059;-73
2022/10/08 00:23:35;;;;;;;1.58;1.00;;;17.10;67.80;;;;;;5072796;28;20053;-74
2022/10/08 00:26:03;;;;;;;2.50;1.25;;;17.10;67.30;;;;;;5073955;28;20050;-73
2022/10/08 00:28:29;;;;;;;2.67;1.17;;;17.10;67.30;;;;;;5073779;28;20080;-73
2022/10/08 00:30:57;;;;;;;1.67;1.20;;;17.10;67.30;;;;;;5072391;28;20057;-74
2022/10/08 00:33:23;;;;;;;2.70;1.30;;;17.10;67.30;;;;;;5073845;28;20086;-73
2022/10/08 00:35:52;;;;;;;1.23;0.93;;;17.10;67.30;;;;;;5073918;28;20111;-73
2022/10/08 00:38:19;;;;;;;2.00;1.10;;;17.10;67.30;;;;;;5072794;28;20052;-74
2022/10/08 00:40:46;;;;;;;1.92;1.30;;;17.10;67.40;;;;;;5072288;28;20422;-72
2022/10/08 00:43:14;;;;;;;1.55;1.02;;;17.10;67.40;;;;;;5072460;28;20075;-74
2022/10/08 00:45:41;;;;;;;2.08;1.10;;;17.10;67.40;;;;;;5072792;28;20060;-73
2022/10/08 00:48:10;;;;;;;1.35;1.00;;;17.10;67.40;;;;;;5073857;28;20052;-72
2022/10/08 00:50:38;;;;;;;1.48;0.98;;;17.10;67.40;;;;;;5073406;28;20051;-73
2022/10/08 00:53:08;;;;;;;2.70;1.23;;;17.10;67.40;;;;;;5072305;28;20075;-74
2022/10/08 00:55:35;;;;;;;1.35;0.90;;;17.10;67.40;;;;;;5072188;28;20056;-73
2022/10/08 00:58:04;;;;;;;2.08;1.20;;;17.00;67.40;;;;;;5072598;28;20490;-73
2022/10/08 01:00:32;;;;;;;1.40;1.08;;;17.00;67.70;;;;;;5072141;28;20058;-73
2022/10/08 01:02:59;;;;;;;2.13;1.17;;;17.10;67.50;;;;;;5072214;28;20056;-73
2022/10/08 01:05:30;;;;;;;1.48;1.00;;;17.00;67.40;;;;;;5071942;28;20049;-74
2022/10/08 01:07:59;;;;;;;2.03;1.20;;;17.00;67.50;;;;;;5072925;28;20391;-71
2022/10/08 01:10:32;;;;;;;3.17;1.20;;;17.00;67.50;;;;;;5071893;28;20052;-74
2022/10/08 01:13:05;;;;;;;1.98;1.10;;;17.10;67.50;;;;;;5072131;28;20068;-73
2022/10/08 01:15:34;;;;;;;1.50;1.00;;;17.00;67.50;;;;;;5073372;28;20131;-74
2022/10/08 01:18:06;;;;;;;1.63;1.10;;;17.00;67.50;;;;;;5071742;28;20131;-72
2022/10/08 01:20:49;;;;;;;1.75;0.98;;;17.00;67.50;;;;;;5071613;28;20413;-73
2022/10/08 01:23:38;;;;;;;1.98;1.20;;;17.10;67.50;;;;;;5072566;28;20048;-74
2022/10/08 01:26:12;;;;;;;2.28;1.10;;;17.00;67.40;;;;;;5071888;28;20064;-73
2022/10/08 01:28:41;;;;;;;1.05;0.90;;;17.00;67.60;;;;;;5072475;28;20161;-73
2022/10/08 01:31:09;;;;;;;2.13;1.10;;;17.00;67.60;;;;;;5071411;28;20385;-74
2022/10/08 01:33:39;;;;;;;1.92;1.20;;;17.00;67.60;;;;;;5071648;28;20387;-73
2022/10/08 01:36:06;;;;;;;1.38;1.10;;;17.00;67.60;;;;;;5072864;28;20110;-74
2022/10/08 01:38:33;;;;;;;1.58;1.00;;;17.00;67.60;;;;;;5072502;28;20084;-74
2022/10/08 01:41:02;;;;;;;1.38;1.00;;;17.00;67.60;;;;;;5071603;28;20056;-74
2022/10/08 01:43:30;;;;;;;1.63;1.02;;;17.00;67.60;;;;;;5071334;28;20053;-73
2022/10/08 01:46:00;;;;;;;2.80;1.10;;;17.00;67.60;;;;;;5071674;28;20493;-73
2022/10/08 01:48:28;;;;;;;4.30;1.38;;;19.00;68.70;;;;;;5072308;28;20513;-74
2022/10/08 01:50:56;;;;;;;1.40;1.00;;;16.90;67.60;;;;;;5071286;28;20060;-74
2022/10/08 01:53:25;;;;;;;1.92;1.20;;;17.00;67.70;;;;;;5071724;28;20391;-73
2022/10/08 01:55:53;;;;;;;1.92;1.00;;;16.90;67.60;;;;;;5071991;28;20127;-73
2022/10/08 01:58:25;;;;;;;1.67;1.02;;;16.90;67.60;;;;;;5072530;28;20048;-73
2022/10/08 02:00:52;;;;;;;2.33;1.10;;;16.90;67.60;;;;;;5071312;28;20503;-72
2022/10/08 02:03:20;;;;;;;2.08;1.00;;;16.90;67.60;;;;;;5071141;28;20056;-73
2022/10/08 02:05:49;;;;;;;1.67;1.08;;;16.90;67.60;;;;;;5070916;28;20132;-73
2022/10/08 02:08:20;;;;;;;1.70;1.02;;;16.90;67.60;;;;;;5071388;28;20048;-74
2022/10/08 02:10:46;;;;;;;1.92;1.10;;;16.90;67.60;;;;;;5070637;28;20052;-72
2022/10/08 02:13:13;;;;;;;2.25;1.02;;;16.90;67.60;;;;;;5072105;28;20055;-74
2022/10/08 02:15:43;;;;;;;1.58;1.10;;;16.90;67.70;;;;;;5070966;28;20054;-73
2022/10/08 02:18:11;;;;;;;1.67;1.00;;;16.90;67.70;;;;;;5070808;28;20057;-72
2022/10/08 02:20:42;;;;;;;2.22;1.10;;;16.90;67.70;;;;;;5070565;28;20056;-71
2022/10/08 02:23:11;;;;;;;2.35;1.17;;;16.90;67.70;;;;;;5070771;28;20063;-71
2022/10/08 02:25:40;;;;;;;2.13;1.17;;;16.90;67.70;;;;;;5070863;28;20148;-72
2022/10/08 02:28:09;;;;;;;1.33;1.00;;;16.90;67.70;;;;;;5070400;28;20056;-71
2022/10/08 02:30:38;;;;;;;1.23;0.90;;;16.90;67.70;;;;;;5070248;28;20048;-71
2022/10/08 02:33:07;;;;;;;1.10;1.00;;;16.90;68.30;;;;;;5070443;28;20048;-72
2022/10/08 02:35:37;;;;;;;2.25;1.15;;;16.90;67.70;;;;;;5070727;28;20045;-71
2022/10/08 02:38:08;;;;;;;1.25;1.08;;;16.90;67.70;;;;;;5070212;28;20444;-71
2022/10/08 02:40:34;;;;;;;1.35;1.00;;;16.90;67.80;;;;;;5069591;28;20452;-71
2022/10/08 02:43:05;;;;;;;1.20;0.95;;;16.90;67.80;;;;;;5071829;28;20053;-71
2022/10/08 02:45:34;;;;;;;1.73;1.20;;;16.90;67.80;;;;;;5070584;28;20055;-72
2022/10/08 02:48:03;;;;;;;1.55;1.10;;;16.90;67.80;;;;;;5054407;28;20056;-72
2022/10/08 02:50:30;;;;;;;1.85;1.15;;;16.90;67.80;;;;;;5071517;28;20456;-71
2022/10/08 02:52:57;;;;;;;2.20;1.10;;;16.90;67.80;;;;;;5070028;28;20071;-71
2022/10/08 02:55:29;;;;;;;2.28;1.00;;;16.80;67.70;;;;;;5070757;28;20052;-71
2022/10/08 02:58:00;;;;;;;1.45;1.10;;;16.80;67.70;;;;;;5071830;28;20052;-72
2022/10/08 03:00:31;;;;;;;1.35;1.05;;;16.80;67.80;;;;;;5070240;28;20084;-72
2022/10/08 03:03:00;;;;;;;2.67;1.13;;;16.80;67.80;;;;;;5070618;28;20067;-72
2022/10/08 03:05:28;;;;;;;1.67;1.20;;;16.80;67.80;;;;;;5070566;28;20058;-72
2022/10/08 03:07:54;;;;;;;1.63;1.05;;;16.80;67.80;;;;;;5069944;28;20128;-72
2022/10/08 03:10:24;;;;;;;1.40;1.00;;;16.80;67.80;;;;;;5070220;28;20056;-72
2022/10/08 03:12:53;;;;;;;1.50;1.08;;;16.80;67.80;;;;;;5070181;28;20056;-72
2022/10/08 03:15:20;;;;;;;1.90;1.10;;;16.80;67.80;;;;;;5070350;28;20052;-72
2022/10/08 03:17:47;;;;;;;2.30;1.20;;;16.80;67.80;;;;;;5071436;28;20489;-72
2022/10/08 03:20:13;;;;;;;2.15;1.20;;;16.80;67.90;;;;;;5069636;28;20067;-72
2022/10/08 03:22:40;;;;;;;1.95;1.08;;;16.80;67.90;;;;;;5070413;28;20524;-71
2022/10/08 03:25:08;;;;;;;1.05;0.82;;;16.80;67.90;;;;;;5070211;28;20055;-72
2022/10/08 03:27:35;;;;;;;1.42;1.05;;;16.80;67.90;;;;;;5070477;28;20179;-71
2022/10/08 03:30:03;;;;;;;1.42;1.10;;;16.80;67.80;;;;;;5070927;28;20494;-71
2022/10/08 03:32:30;;;;;;;2.22;1.10;;;16.80;67.80;;;;;;5071441;28;20067;-72
2022/10/08 03:34:57;;;;;;;1.08;0.80;;;16.80;67.90;;;;;;5069448;28;20054;-71
2022/10/08 03:37:23;;;;;;;1.92;1.10;;;16.80;67.90;;;;;;5070351;28;20065;-72
2022/10/08 03:39:50;;;;;;;1.65;1.10;;;16.80;67.90;;;;;;5070300;28;20055;-72
2022/10/08 03:42:17;;;;;;;1.70;1.10;;;16.80;67.90;;;;;;5069807;28;20052;-71
2022/10/08 03:44:43;;;;;;;1.85;0.90;;;16.80;67.90;;;;;;5070212;28;20390;-72
2022/10/08 03:47:11;;;;;;;1.23;1.00;;;16.80;67.90;;;;;;5071132;28;20045;-72
2022/10/08 03:49:38;;;;;;;1.83;1.10;;;16.70;67.80;;;;;;5070141;28;20056;-71
2022/10/08 03:52:05;;;;;;;1.40;1.00;;;16.70;67.90;;;;;;5072642;28;20060;-71
2022/10/08 03:54:34;;;;;;;1.05;0.90;;;16.80;67.90;;;;;;5074834;28;20052;-72
2022/10/08 03:57:00;;;;;;;1.88;1.05;;;16.70;67.90;;;;;;5073527;28;20141;-72
2022/10/08 03:59:27;;;;;;;1.60;1.00;;;16.70;67.90;;;;;;5073484;28;20491;-72
2022/10/08 04:01:54;;;;;;;1.25;0.80;;;16.70;67.90;;;;;;5073230;28;20062;-71
2022/10/08 04:04:22;;;;;;;1.13;0.90;;;16.70;67.90;;;;;;5074526;28;20049;-71
2022/10/08 04:06:48;;;;;;;2.15;1.15;;;16.70;67.90;;;;;;5073394;28;20412;-71
2022/10/08 04:09:15;;;;;;;1.10;0.82;;;16.70;67.90;;;;;;5074178;28;20082;-71
2022/10/08 04:11:42;;;;;;;1.45;1.17;;;16.70;67.90;;;;;;5074582;28;20350;-72
2022/10/08 04:14:09;;;;;;;1.27;1.00;;;16.70;67.90;;;;;;5072961;28;20052;-71
2022/10/08 04:16:35;;;;;;;2.05;1.00;;;16.70;67.90;;;;;;5074420;28;20412;-73
2022/10/08 04:19:02;;;;;;;1.58;1.10;;;16.70;67.90;;;;;;5072776;28;20057;-72
2022/10/08 04:21:31;;;;;;;1.38;0.93;;;16.70;67.90;;;;;;5072679;28;20056;-73
2022/10/08 04:23:57;;;;;;;1.60;1.00;;;16.70;67.90;;;;;;5073304;28;20452;-73
2022/10/08 04:26:24;;;;;;;1.10;0.95;;;16.70;67.90;;;;;;5073961;28;20051;-70
2022/10/08 04:28:51;;;;;;;1.55;1.10;;;16.70;67.90;;;;;;5074140;28;20044;-74
2022/10/08 04:31:18;;;;;;;0.80;0.70;;;16.70;67.90;;;;;;5073893;28;20469;-73
2022/10/08 04:33:45;;;;;;;1.02;0.85;;;16.70;67.90;;;;;;5073718;28;20135;-73
2022/10/08 04:36:13;;;;;;;1.05;0.95;;;16.70;67.90;;;;;;5072895;28;20062;-73
2022/10/08 04:38:41;;;;;;;1.45;0.98;;;16.70;67.90;;;;;;5073853;28;20051;-71
2022/10/08 04:41:09;;;;;;;1.38;0.90;;;16.70;67.90;;;;;;5072635;28;20056;-74
2022/10/08 04:43:36;;;;;;;1.83;1.00;;;16.70;67.90;;;;;;5073737;28;20052;-71
2022/10/08 04:46:03;;;;;;;1.85;0.93;;;16.70;67.90;;;;;;5073371;28;20048;-72
2022/10/08 04:48:29;;;;;;;1.50;1.10;;;16.70;67.90;;;;;;5072330;28;20059;-71
2022/10/08 04:50:57;;;;;;;0.82;0.80;;;16.70;67.90;;;;;;5071430;28;20060;-71
2022/10/08 04:53:24;;;;;;;1.40;1.00;;;16.60;67.80;;;;;;5072306;28;20079;-72
2022/10/08 04:55:52;;;;;;;1.95;0.90;;;16.60;67.90;;;;;;5072028;28;20052;-71
2022/10/08 04:58:19;;;;;;;1.50;1.10;;;16.70;67.90;;;;;;5073281;28;20408;-72
2022/10/08 05:00:46;;;;;;;1.38;0.80;;;16.70;67.90;;;;;;5071899;28;20150;-72
2022/10/08 05:03:13;;;;;;;1.63;1.00;;;16.60;67.90;;;;;;5071158;28;20390;-70
2022/10/08 05:05:40;;;;;;;1.45;1.10;;;16.60;67.90;;;;;;5071799;28;20056;-73
2022/10/08 05:08:06;;;;;;;1.35;0.90;;;16.70;67.90;;;;;;5072342;28;20062;-73
2022/10/08 05:10:33;;;;;;;1.30;0.95;;;16.60;67.80;;;;;;5071897;28;20498;-72
2022/10/08 05:13:01;;;;;;;1.25;0.98;;;16.60;67.80;;;;;;5073038;28;20408;-73
2022/10/08 05:15:28;;;;;;;1.70;1.13;;;16.60;67.80;;;;;;5072524;28;20059;-73
2022/10/08 05:17:55;;;;;;;1.05;0.90;;;16.60;67.90;;;;;;5073156;28;20131;-74
2022/10/08 05:20:21;;;;;;;1.10;0.88;;;16.60;67.90;;;;;;5071730;28;20074;-71
2022/10/08 05:22:48;;;;;;;1.77;1.00;;;16.60;67.90;;;;;;5071806;28;20054;-73
2022/10/08 05:25:15;;;;;;;1.70;1.00;;;16.60;67.90;;;;;;5071820;28;20055;-73
2022/10/08 05:27:42;;;;;;;1.20;0.80;;;16.60;67.90;;;;;;5071729;28;20056;-72
2022/10/08 05:30:11;;;;;;;0.90;0.85;;;16.60;67.90;;;;;;5072663;28;20045;-74
2022/10/08 05:32:38;;;;;;;1.38;0.90;;;16.60;68.40;;;;;;5071640;28;20104;-74
2022/10/08 05:35:05;;;;;;;1.65;1.05;;;16.60;67.90;;;;;;5072796;28;20378;-73
2022/10/08 05:37:32;;;;;;;2.78;1.05;;;16.60;67.90;;;;;;5071940;28;20557;-74
2022/10/08 05:39:58;;;;;;;1.30;0.90;;;16.60;67.90;;;;;;5070942;28;20052;-71
2022/10/08 05:42:25;;;;;;;1.70;1.10;;;16.60;67.90;;;;;;5071610;28;20051;-72
2022/10/08 05:44:52;;;;;;;1.75;0.90;;;16.60;67.90;;;;;;5071230;28;20048;-72
2022/10/08 05:47:20;;;;;;;1.95;1.30;;;16.60;67.90;;;;;;5071704;28;20060;-73
2022/10/08 05:49:46;;;;;;;1.45;1.00;;;16.60;67.90;;;;;;5072357;28;20053;-71
2022/10/08 05:52:13;;;;;;;1.23;0.90;;;16.60;67.90;;;;;;5070964;28;20057;-71
2022/10/08 05:54:40;;;;;;;1.13;0.93;;;16.50;67.80;;;;;;5072386;28;20465;-72
2022/10/08 05:57:06;;;;;;;1.27;1.00;;;16.60;67.90;;;;;;5072286;28;20135;-71
2022/10/08 05:59:33;;;;;;;0.80;0.80;;;16.60;67.90;;;;;;5070775;28;20052;-72
2022/10/08 06:02:00;;;;;;;1.42;0.90;;;16.60;67.90;;;;;;5070832;28;20107;-72
2022/10/08 06:04:28;;;;;;;2.63;0.88;;;16.50;67.80;;;;;;5071234;28;20087;-72
2022/10/08 06:06:55;;;;;;;1.98;0.93;;;16.50;67.80;;;;;;5070981;28;20481;-70
2022/10/08 06:09:21;;;;;;;1.83;0.98;;;16.50;67.80;;;;;;5070693;28;20059;-73
2022/10/08 06:11:48;;;;;;;1.33;0.88;;;16.50;67.80;;;;;;5070847;28;20053;-73
2022/10/08 06:14:16;;;;;;;1.30;1.00;;;16.50;67.80;;;;;;5070749;28;20055;-70
2022/10/08 06:16:43;;;;;;;1.23;0.80;;;16.50;67.80;;;;;;5071006;28;20433;-71
2022/10/08 06:19:09;;;;;;;1.40;0.88;;;16.50;67.90;;;;;;5070640;28;20057;-72
2022/10/08 06:21:38;;;;;;;1.05;0.88;;;16.50;67.90;;;;;;5070788;28;20052;-71
2022/10/08 06:24:05;;;;;;;1.10;0.90;;;16.50;67.80;;;;;;5071870;28;20044;-72
2022/10/08 06:26:34;;;;;;;1.25;1.00;;;16.50;67.90;;;;;;5070904;28;20058;-72
2022/10/08 06:29:00;;;;;;;0.95;0.90;;;16.50;67.90;;;;;;5070744;28;20060;-72
2022/10/08 06:31:27;;;;;;;1.15;0.98;;;16.50;67.90;;;;;;5070309;28;20055;-72
2022/10/08 06:33:55;;;;;;;1.42;1.00;;;16.50;67.90;;;;;;5070302;28;20052;-72
2022/10/08 06:36:23;;;;;;;0.95;0.82;;;16.50;67.90;;;;;;5070878;28;20397;-72
2022/10/08 06:38:51;;;;;;;0.93;0.90;;;16.50;67.90;;;;;;5071962;28;20390;-72
2022/10/08 06:41:18;;;;;;;1.17;0.90;;;16.50;67.80;;;;;;5071417;28;20053;-72
2022/10/08 06:43:45;;;;;;;1.63;0.90;;;16.50;67.80;;;;;;5070573;28;20390;-72
2022/10/08 06:46:12;;;;;;;0.85;0.85;;;16.50;67.90;;;;;;5070461;28;20048;-72
2022/10/08 06:48:38;;;;;;;2.45;0.90;;;16.50;67.90;;;;;;5070432;28;20075;-72
2022/10/08 06:51:06;;;;;;;1.65;1.00;;;16.50;67.90;;;;;;5070019;28;20047;-72
2022/10/08 06:53:32;;;;;;;2.22;1.10;;;16.50;67.90;;;;;;5069236;28;20131;-72
2022/10/08 06:56:02;;;;;;;1.63;0.95;;;16.50;67.90;;;;;;5070498;28;20056;-72
2022/10/08 06:58:29;;;;;;;1.30;0.75;;;16.50;68.40;;;;;;5070036;28;20048;-72
2022/10/08 07:01:05;;;;;;;1.35;1.00;;;16.50;67.80;;;;;;5069508;28;20412;-72
2022/10/08 07:03:32;;;;;;;0.95;0.90;;;16.50;67.80;;;;;;5067903;28;20478;-72
2022/10/08 07:06:00;;;;;;;1.55;0.70;;;16.50;67.90;;;;;;5071020;28;20067;-71
2022/10/08 07:08:27;;;;;;;1.77;0.90;;;16.50;67.90;;;;;;5070716;28;20502;-72
2022/10/08 07:10:54;;;;;;;1.65;1.00;;;16.50;67.90;;;;;;5069785;28;20052;-72
2022/10/08 07:13:22;;;;;;;1.13;0.82;;;16.50;67.90;;;;;;5071624;28;20052;-72
2022/10/08 07:15:48;;;;;;;2.22;0.70;;;16.50;67.80;;;;;;5070068;28;20050;-72
2022/10/08 07:18:15;;;;;;;1.02;0.88;;;16.50;67.80;;;;;;5071561;28;20059;-72
2022/10/08 07:20:42;;;;;;;1.75;1.00;;;16.60;67.90;;;;;;5070981;28;20404;-72
2022/10/08 07:23:08;;;;;;;1.33;1.10;;;16.60;67.80;;;;;;5065482;28;20054;-70
2022/10/08 07:25:35;;;;;;;0.73;0.73;;;16.60;67.80;;;;;;5070480;28;20067;-73
2022/10/08 07:28:02;;;;;;;1.23;0.90;;;16.70;67.80;;;;;;5075417;28;20040;-73
2022/10/08 07:30:31;;;;;;;1.20;0.80;;;16.60;67.70;;;;;;5075091;28;20382;-73
2022/10/08 07:32:59;;;;;;;1.02;0.82;;;16.70;67.80;;;;;;5073977;28;20076;-74
2022/10/08 07:35:25;;;;;;;1.23;0.88;;;16.70;67.70;;;;;;5074756;28;20048;-72
2022/10/08 07:37:52;;;;;;;2.10;1.00;;;16.70;67.60;;;;;;5074708;28;20050;-72
2022/10/08 07:40:19;;;;;;;1.70;0.85;;;16.80;67.60;;;;;;5073070;28;20048;-71
2022/10/08 07:42:45;;;;;;;1.13;0.90;;;16.80;67.60;;;;;;5073377;28;20501;-73
2022/10/08 07:45:12;;;;;;;2.08;0.90;;;16.80;67.50;;;;;;5073153;28;20132;-72
2022/10/08 07:47:40;;;;;;;1.52;0.82;;;16.80;67.50;;;;;;5073924;28;20067;-71
2022/10/08 07:50:08;;;;;;;2.47;1.00;;;16.80;67.40;;;;;;5073437;28;20048;-74
2022/10/08 07:52:34;;;;;;;1.27;0.88;;;16.90;67.50;;;;;;5074419;28;20055;-74
2022/10/08 07:55:01;;;;;;;0.70;0.70;;;16.80;67.40;;;;;;5073537;28;20119;-73
2022/10/08 07:57:28;;;;;;;0.88;0.77;;;16.90;67.40;;;;;;5073477;28;20057;-73
2022/10/08 07:59:54;;;;;;;3.05;0.95;;;16.90;67.40;;;;;;5073720;28;20127;-71
2022/10/08 08:02:21;;;;;;;1.23;0.95;;;16.90;67.30;;;;;;5073111;28;20052;-73
2022/10/08 08:04:49;;;;;;;1.33;0.85;;;16.90;67.30;;;;;;5073634;28;20541;-73
2022/10/08 08:07:16;;;;;;;1.27;0.90;;;16.90;67.30;;;;;;5070238;28;20062;-74
2022/10/08 08:09:43;;;;;;;0.98;0.85;;;16.90;67.30;;;;;;5073963;28;20429;-71
2022/10/08 08:12:10;;;;;;;2.00;0.90;;;16.90;67.20;;;;;;5072988;28;20569;-70
2022/10/08 08:14:37;;;;;;;1.35;0.90;;;16.90;67.20;;;;;;5070026;28;20507;-71
2022/10/08 08:17:04;;;;;;;1.17;0.90;;;16.90;67.20;;;;;;5072814;28;20058;-73
2022/10/08 08:19:31;;;;;;;1.45;0.95;;;16.90;67.20;;;;;;5072807;28;20056;-72
2022/10/08 08:21:59;;;;;;;2.35;0.90;;;17.00;67.20;;;;;;5073430;28;20465;-73
2022/10/08 08:24:25;;;;;;;1.33;0.77;;;17.00;67.20;;;;;;5073157;28;20054;-73
2022/10/08 08:26:52;;;;;;;1.75;0.95;;;17.00;67.20;;;;;;5073079;28;20408;-71
2022/10/08 08:29:19;;;;;;;0.85;0.80;;;16.90;67.20;;;;;;5072528;28;20058;-73
2022/10/08 08:31:46;;;;;;;1.08;0.80;;;17.00;67.20;;;;;;5072732;28;20413;-71
2022/10/08 08:34:15;;;;;;;1.27;0.90;;;17.00;67.30;;;;;;5072628;28;20048;-74
2022/10/08 08:36:42;;;;;;;0.90;0.80;;;17.00;67.20;;;;;;5072343;28;20536;-72
2022/10/08 08:39:14;;;;;;;1.02;0.70;;;17.00;67.20;;;;;;5071616;28;20078;-74
2022/10/08 08:41:48;;;;;;;1.00;0.90;;;17.00;67.20;;;;;;5071865;28;20052;-71
2022/10/08 08:44:18;;;;;;;1.30;0.80;;;17.00;67.20;;;;;;5063741;28;20053;-70
2022/10/08 08:46:47;;;;;;;0.63;0.63;;;17.00;67.20;;;;;;5052639;28;20057;-72
2022/10/08 08:49:18;;;;;;;1.38;0.88;;;17.00;67.20;;;;;;5067120;28;20059;-72
2022/10/08 08:51:45;;;;;;;1.67;1.00;;;17.00;67.20;;;;;;5070466;28;20057;-72
2022/10/08 08:54:13;;;;;;;1.42;0.80;;;17.00;67.20;;;;;;5072035;28;20045;-74
2022/10/08 08:56:40;;;;;;;1.00;0.70;;;17.00;67.10;;;;;;5073656;28;20111;-72
2022/10/08 08:59:15;;;;;;;0.70;0.60;;;17.00;67.10;;;;;;5072255;28;20074;-74
2022/10/08 09:01:42;;;;;;;0.90;0.65;;;17.00;67.10;;;;;;5073072;28;20058;-74
2022/10/08 09:04:13;;;;;;;1.15;0.82;;;17.10;67.10;;;;;;5070173;28;20044;-74
2022/10/08 09:06:40;;;;;;;1.30;0.80;;;17.10;67.10;;;;;;5072299;28;20048;-70
2022/10/08 09:09:16;;;;;;;1.27;0.80;;;17.10;67.10;;;;;;5072230;28;20062;-71
2022/10/08 09:11:43;;;;;;;0.57;0.52;;;17.10;67.10;;;;;;5071831;28;20056;-72
2022/10/08 09:14:17;;;;;;;2.67;0.80;;;17.10;67.10;;;;;;5072061;28;20452;-71
2022/10/08 09:16:43;;;;;;;1.13;0.80;;;17.20;67.20;;;;;;5072155;28;20053;-71
2022/10/08 09:19:10;;;;;;;0.95;0.90;;;17.20;67.20;;;;;;5071992;28;20588;-73
2022/10/08 09:21:37;;;;;;;1.25;0.80;;;17.20;67.20;;;;;;5071585;28;20071;-72
2022/10/08 09:24:04;;;;;;;2.92;0.80;;;17.20;67.20;;;;;;5072377;28;20052;-74
2022/10/08 09:26:32;;;;;;;2.47;1.00;;;17.20;67.20;;;;;;5073419;28;20152;-73
2022/10/08 09:29:00;;;;;;;4.18;1.08;;;17.30;67.20;;;;;;5071356;28;20155;-72
2022/10/08 09:31:28;;;;;;;2.55;0.90;;;17.30;67.20;;;;;;5072065;28;20440;-71
2022/10/08 09:34:05;;;;;;;2.25;1.00;;;17.40;67.40;;;;;;5072653;28;20107;-74
2022/10/08 09:36:36;;;;;;;1.98;0.93;;;17.40;67.50;;;;;;5071820;28;20057;-73
2022/10/08 09:39:04;;;;;;;2.80;1.10;;;17.40;67.60;;;;;;5071755;28;20066;-75
2022/10/08 09:41:32;;;;;;;1.33;0.90;;;17.40;67.50;;;;;;5071348;28;20055;-73
2022/10/08 09:44:10;;;;;;;3.97;1.10;;;17.40;67.40;;;;;;5071745;28;20496;-72
2022/10/08 09:46:36;;;;;;;2.10;1.05;;;17.50;67.50;;;;;;5071678;28;20519;-72
2022/10/08 09:49:20;;;;;;;4.70;1.20;;;17.50;67.50;;;;;;5071326;28;20082;-72
2022/10/08 09:51:48;;;;;;;4.10;1.05;;;17.50;67.50;;;;;;5071217;28;20056;-72
2022/10/08 09:54:16;;;;;;;2.10;0.98;;;17.50;67.50;;;;;;5071120;28;20055;-71
2022/10/08 09:56:44;;;;;;;3.35;1.00;;;17.50;67.60;;;;;;5069475;28;20500;-73
2022/10/08 09:59:12;;;;;;;2.13;0.95;;;17.50;67.50;;;;;;5071788;28;20048;-72
2022/10/08 10:01:46;;;;;;;2.30;1.00;;;17.50;67.40;;;;;;5070003;28;20060;-72
2022/10/08 10:04:18;;;;;;;2.55;1.02;;;17.50;67.40;;;;;;5070424;28;20049;-72
2022/10/08 10:06:47;;;;;;;3.85;1.10;;;17.50;67.40;;;;;;5070957;28;20075;-72
2022/10/08 10:09:23;;;;;;;2.30;1.00;;;17.50;67.40;;;;;;5065387;28;20516;-72
2022/10/08 10:11:52;;;;;;;3.47;1.10;;;17.50;67.40;;;;;;5070669;28;20063;-72
2022/10/08 10:14:21;;;;;;;2.95;1.02;;;17.50;67.40;;;;;;5070001;28;20053;-74
2022/10/08 10:16:49;;;;;;;3.72;1.02;;;17.40;67.30;;;;;;5068038;28;20147;-74
2022/10/08 10:19:17;;;;;;;1.80;1.20;;;17.50;67.30;;;;;;5070044;28;20056;-74
2022/10/08 10:21:46;;;;;;;3.10;1.00;;;17.50;67.40;;;;;;5071611;28;20080;-74
2022/10/08 10:24:47;;;;;;;3.17;1.20;;;17.50;67.30;;;;;;5068071;28;20047;-74
2022/10/08 10:27:16;;;;;;;2.03;1.08;;;17.50;67.30;;;;;;5042833;28;20114;-74
2022/10/08 10:29:51;;;;;;;3.10;1.10;;;17.50;67.30;;;;;;5050649;28;20057;-73
2022/10/08 10:32:20;;;;;;;5.60;1.10;;;17.40;67.30;;;;;;5050842;28;20053;-73
2022/10/08 10:34:50;;;;;;;2.75;1.10;;;17.50;67.30;;;;;;5050760;28;20049;-72
2022/10/08 10:37:21;;;;;;;3.03;0.90;;;17.50;67.30;;;;;;5050384;28;20486;-74
2022/10/08 10:39:51;;;;;;;2.63;1.15;;;17.50;67.30;;;;;;5061797;28;20058;-74
2022/10/08 10:42:20;;;;;;;3.67;1.35;;;17.50;67.20;;;;;;5066438;28;20052;-74
2022/10/08 10:44:51;;;;;;;2.25;1.02;;;17.50;67.20;;;;;;5070308;28;20144;-72
2022/10/08 10:47:18;;;;;;;1.70;0.82;;;17.50;67.20;;;;;;5067166;28;20056;-72
2022/10/08 10:49:45;;;;;;;1.92;0.90;;;17.50;67.10;;;;;;5069816;28;20055;-72
2022/10/08 10:52:30;;;;;;;3.72;0.85;;;17.50;67.10;;;;;;5070614;28;20055;-73
2022/10/08 10:55:07;;;;;;;1.88;0.90;;;17.50;67.60;;;;;;5070303;28;20127;-73
2022/10/08 10:57:42;;;;;;;2.22;1.08;;;17.50;67.10;;;;;;5070288;28;20048;-71
2022/10/08 11:00:11;;;;;;;2.33;0.95;;;17.50;67.10;;;;;;5068578;28;20468;-71
2022/10/08 11:02:42;;;;;;;1.60;0.73;;;17.50;67.10;;;;;;5072927;28;20616;-72
2022/10/08 11:05:13;;;;;;;13.27;2.20;;;17.50;67.10;;;;;;5073252;28;20044;-73
2022/10/08 11:08:04;;;;;;;15.30;2.53;;;17.50;67.10;;;;;;5070603;28;20051;-74
2022/10/08 11:10:38;;;;;;;11.35;2.63;;;17.60;67.10;;;;;;5072065;28;20063;-73
2022/10/08 11:13:11;;;;;;;10.50;2.30;;;17.60;67.10;;;;;;5074000;28;20058;-73
2022/10/08 11:15:41;;;;;;;8.77;2.08;;;17.60;67.10;;;;;;5073390;28;20050;-73
2022/10/08 11:18:14;;;;;;;7.68;2.05;;;17.60;67.10;;;;;;5073770;28;20082;-73
2022/10/08 11:20:48;;;;;;;9.48;1.90;;;17.70;67.20;;;;;;5073638;28;20078;-73
2022/10/08 11:23:26;;;;;;;6.15;1.70;;;17.70;67.30;;;;;;5075457;28;20428;-73
2022/10/08 11:25:54;;;;;;;;;;;17.70;67.20;;;;;;5075821;28;20374;-73
2022/10/08 11:28:26;;;;;;;5.85;1.60;;;17.70;67.30;;;;;;5074292;28;19920;-73
2022/10/08 11:30:58;;;;;;;6.20;1.70;;;17.70;67.20;;;;;;5073959;28;20063;-73
2022/10/08 11:33:25;;;;;;;3.88;1.40;;;17.80;67.20;;;;;;5074218;28;20135;-73
2022/10/08 11:36:12;;;;;;;7.10;1.52;;;17.80;67.20;;;;;;5074050;28;20053;-74
2022/10/08 11:38:40;;;;;;;4.93;1.35;;;17.80;67.20;;;;;;5074140;28;20807;-73
2022/10/08 11:41:10;;;;;;;3.65;1.20;;;17.80;67.20;;;;;;5074076;28;20067;-73
2022/10/08 11:43:39;;;;;;;4.82;1.40;;;17.80;67.20;;;;;;5073128;28;20063;-73
2022/10/08 11:46:13;;;;;;;3.90;1.42;;;17.90;67.30;;;;;;5073674;28;20053;-76
2022/10/08 11:48:40;;;;;;;3.05;1.10;;;17.90;67.30;;;;;;5073247;28;20064;-73
2022/10/08 11:51:36;;;;;;;2.65;1.17;;;17.90;67.30;;;;;;5073477;28;20059;-70
2022/10/08 11:54:04;;;;;;;;;;;17.90;67.20;;;;;;5066367;28;20108;-70
2022/10/08 11:56:31;;;;;;;6.35;1.30;;;17.90;67.30;;;;;;5074888;28;19939;-70
2022/10/08 11:59:01;;;;;;;5.28;1.55;;;17.90;67.30;;;;;;5074289;28;20136;-71
2022/10/08 12:01:28;;;;;;;6.07;1.30;;;17.90;67.20;;;;;;5073292;28;20053;-71
2022/10/08 12:04:03;;;;;;;3.97;1.35;;;17.90;67.20;;;;;;5074565;28;20052;-71
2022/10/08 12:06:31;;;;;;;4.28;1.35;;;17.90;67.20;;;;;;5073412;28;20061;-73
2022/10/08 12:08:58;;;;;;;4.82;1.30;;;17.90;67.80;;;;;;5073277;28;20132;-72
2022/10/08 12:11:48;;;;;;;3.42;1.38;;;17.90;67.30;;;;;;5072948;28;20054;-73
2022/10/08 12:14:45;;;;;;;3.58;1.42;;;17.90;67.20;;;;;;5072571;28;20048;-72
2022/10/08 12:17:12;;;;;;;4.90;1.15;;;17.80;67.10;;;;;;5072429;28;20097;-72
2022/10/08 12:20:12;;;;;;;4.45;1.17;;;17.80;67.20;;;;;;5073496;28;20083;-72
2022/10/08 12:22:42;;;;;;;4.18;1.20;;;17.80;67.10;;;;;;5038307;28;20295;-72
2022/10/08 12:25:32;;;;;;;4.97;1.40;;;17.80;67.20;;;;;;5072575;28;20040;-74
2022/10/08 12:28:34;;;;;;;3.20;1.15;;;17.80;67.10;;;;;;5072406;28;20429;-73
2022/10/08 12:31:14;;;;;;;4.78;1.20;;;17.80;67.10;;;;;;5071328;28;20044;-74
2022/10/08 12:33:41;;;;;;;3.15;1.10;;;17.80;67.20;;;;;;5072544;28;20052;-72
2022/10/08 12:36:13;;;;;;;4.47;1.33;;;17.80;67.10;;;;;;5073492;28;20037;-72
2022/10/08 12:38:41;;;;;;;3.30;1.20;;;17.80;67.10;;;;;;5073272;28;20409;-72
2022/10/08 12:41:13;;;;;;;2.03;1.05;;;17.80;67.60;;;;;;5072120;28;20056;-72
2022/10/08 12:43:42;;;;;;;5.32;1.38;;;17.80;67.10;;;;;;5072926;28;20047;-72
2022/10/08 12:46:16;;;;;;;3.97;1.25;;;17.80;67.10;;;;;;5073336;28;20076;-72
2022/10/08 12:48:46;;;;;;;2.20;1.08;;;17.80;67.00;;;;;;5069682;28;20049;-72
2022/10/08 12:51:18;;;;;;;3.20;1.15;;;17.80;67.00;;;;;;5070935;28;20049;-71
2022/10/08 12:53:45;;;;;;;3.05;1.02;;;17.80;67.00;;;;;;5070172;28;20076;-72
2022/10/08 12:56:15;;;;;;;3.33;1.20;;;17.80;67.00;;;;;;5069755;28;20051;-71
2022/10/08 12:58:43;;;;;;;4.03;1.25;;;17.80;66.90;;;;;;5070378;28;20052;-70